createdAt,value
2017-06-15T00:02:01.032Z,59.70
2017-06-15T00:04:29.295Z,59.80
2017-06-15T00:06:57.596Z,59.80
2017-06-15T00:09:25.871Z,60.00
2017-06-15T00:11:54.164Z,60.00
2017-06-15T00:14:23.211Z,60.70
2017-06-15T00:16:51.492Z,60.30
2017-06-15T00:19:19.788Z,60.60
2017-06-15T00:21:48.067Z,60.80
2017-06-15T00:24:16.369Z,61.00
2017-06-15T00:26:45.420Z,61.70
2017-06-15T00:29:13.720Z,61.40
2017-06-15T00:31:42.003Z,61.70
2017-06-15T00:34:10.307Z,61.70
2017-06-15T00:36:39.354Z,62.20
2017-06-15T00:39:07.651Z,62.20
2017-06-15T00:41:35.939Z,62.20
2017-06-15T00:44:04.235Z,62.40
2017-06-15T00:46:32.515Z,62.40
2017-06-15T00:49:01.575Z,62.50
2017-06-15T00:51:29.867Z,62.50
2017-06-15T00:53:58.155Z,62.40
2017-06-15T00:56:26.435Z,62.70
2017-06-15T00:58:55.502Z,62.50
2017-06-15T01:01:23.775Z,62.50
2017-06-15T01:03:52.056Z,62.70
2017-06-15T01:06:20.350Z,62.50
2017-06-15T01:08:48.629Z,62.30
2017-06-15T01:11:16.927Z,61.90
2017-06-15T01:13:45.209Z,62.10
2017-06-15T01:16:13.499Z,62.20
2017-06-15T01:18:41.772Z,62.40
2017-06-15T01:21:10.071Z,62.60
2017-06-15T01:23:39.115Z,63.30
2017-06-15T01:26:07.411Z,62.40
2017-06-15T01:28:35.683Z,62.60
2017-06-15T01:31:03.979Z,62.60
2017-06-15T01:33:32.262Z,63.00
2017-06-15T01:36:00.577Z,63.10
2017-06-15T01:38:28.861Z,62.90
2017-06-15T01:40:57.138Z,63.00
2017-06-15T01:43:25.444Z,63.50
2017-06-15T01:45:53.723Z,63.60
2017-06-15T01:48:22.019Z,63.60
2017-06-15T01:50:50.332Z,63.70
2017-06-15T01:53:18.630Z,63.70
2017-06-15T01:55:46.919Z,63.80
2017-06-15T01:58:15.221Z,63.90
2017-06-15T02:00:43.504Z,63.90
2017-06-15T02:03:11.806Z,63.90
2017-06-15T02:05:40.091Z,63.80
2017-06-15T02:08:08.391Z,63.90
2017-06-15T02:10:36.671Z,63.90
2017-06-15T02:13:05.000Z,64.00
2017-06-15T02:15:33.277Z,64.10
2017-06-15T02:18:01.554Z,64.10
2017-06-15T02:20:30.620Z,64.30
2017-06-15T02:22:58.899Z,64.30
2017-06-15T02:25:27.194Z,64.40
2017-06-15T02:27:55.469Z,64.60
2017-06-15T02:30:23.759Z,64.80
2017-06-15T02:32:52.040Z,65.20
2017-06-15T02:35:21.103Z,65.60
2017-06-15T02:37:49.379Z,65.60
2017-06-15T02:40:17.680Z,65.70
2017-06-15T02:42:45.983Z,65.60
2017-06-15T02:45:14.279Z,65.40
2017-06-15T02:47:42.557Z,65.30
2017-06-15T02:50:10.854Z,65.30
2017-06-15T02:52:39.127Z,65.40
2017-06-15T02:55:07.427Z,65.40
2017-06-15T02:57:35.704Z,65.80
2017-06-15T03:00:04.023Z,65.80
2017-06-15T03:02:32.300Z,65.80
2017-06-15T03:05:00.583Z,66.10
2017-06-15T03:07:28.879Z,66.00
2017-06-15T03:09:57.155Z,66.00
2017-06-15T03:12:25.455Z,66.20
2017-06-15T03:14:53.737Z,66.30
2017-06-15T03:17:22.035Z,66.20
2017-06-15T03:19:50.338Z,66.10
2017-06-15T03:22:19.394Z,66.20
2017-06-15T03:24:47.677Z,66.20
2017-06-15T03:27:15.975Z,66.30
2017-06-15T03:29:45.025Z,66.70
2017-06-15T03:32:13.320Z,66.60
2017-06-15T03:34:41.597Z,66.80
2017-06-15T03:37:09.903Z,66.80
2017-06-15T03:39:38.948Z,66.70
2017-06-15T03:42:07.247Z,66.70
2017-06-15T03:44:35.524Z,66.70
2017-06-15T03:47:03.799Z,66.40
2017-06-15T03:49:32.099Z,66.50
2017-06-15T03:52:00.375Z,66.70
2017-06-15T03:54:28.675Z,66.30
2017-06-15T03:56:57.720Z,66.20
2017-06-15T03:59:26.016Z,66.20
2017-06-15T04:01:54.299Z,66.30
2017-06-15T04:04:22.600Z,66.40
2017-06-15T04:06:51.666Z,66.50
2017-06-15T04:09:19.967Z,66.40
2017-06-15T04:11:49.016Z,66.70
2017-06-15T04:14:17.309Z,66.70
2017-06-15T04:16:45.671Z,66.60
2017-06-15T04:19:13.968Z,66.70
2017-06-15T04:21:42.245Z,66.80
2017-06-15T04:24:10.543Z,67.00
2017-06-15T04:26:39.587Z,67.10
2017-06-15T04:29:07.899Z,67.10
2017-06-15T04:31:36.176Z,66.80
2017-06-15T04:34:04.457Z,66.60
2017-06-15T04:36:32.753Z,66.50
2017-06-15T04:39:01.799Z,66.60
2017-06-15T04:41:30.092Z,66.60
2017-06-15T04:43:58.376Z,66.50
2017-06-15T04:46:26.675Z,66.50
2017-06-15T04:48:54.960Z,66.00
2017-06-15T04:51:24.024Z,65.00
2017-06-15T04:53:52.304Z,64.90
2017-06-15T04:56:20.593Z,64.30
2017-06-15T04:58:48.871Z,63.00
2017-06-15T05:01:17.163Z,62.80
2017-06-15T05:03:46.212Z,60.20
2017-06-15T05:06:14.516Z,60.10
2017-06-15T05:08:42.796Z,58.40
2017-06-15T05:11:11.081Z,58.20
2017-06-15T05:13:40.143Z,56.90
2017-06-15T05:16:08.423Z,56.80
2017-06-15T05:18:36.719Z,56.40
2017-06-15T05:21:05.009Z,56.10
2017-06-15T05:23:34.074Z,55.20
2017-06-15T05:26:02.362Z,55.20
2017-06-15T05:28:30.658Z,54.10
2017-06-15T05:30:59.713Z,53.30
2017-06-15T05:33:28.106Z,53.30
2017-06-15T05:35:57.183Z,52.80
2017-06-15T05:38:25.478Z,52.80
2017-06-15T05:40:53.767Z,53.40
2017-06-15T05:43:22.071Z,52.60
2017-06-15T05:45:50.363Z,51.60
2017-06-15T05:48:18.648Z,51.80
2017-06-15T05:50:46.939Z,51.50
2017-06-15T05:53:15.218Z,51.10
2017-06-15T05:55:43.520Z,51.20
2017-06-15T05:58:11.799Z,50.60
2017-06-15T06:00:40.095Z,50.30
2017-06-15T06:03:08.396Z,50.30
2017-06-15T06:05:36.724Z,49.70
2017-06-15T06:08:05.155Z,49.00
2017-06-15T06:10:33.520Z,49.60
2017-06-15T06:13:02.561Z,47.80
2017-06-15T06:15:30.854Z,47.70
2017-06-15T06:17:59.161Z,48.50
2017-06-15T06:20:28.256Z,47.90
2017-06-15T06:22:56.542Z,47.90
2017-06-15T06:25:25.588Z,47.50
2017-06-15T06:27:53.884Z,47.50
2017-06-15T06:30:22.160Z,47.10
2017-06-15T06:32:50.446Z,46.00
2017-06-15T06:35:18.713Z,46.30
2017-06-15T06:37:47.007Z,47.10
2017-06-15T06:40:15.271Z,47.00
2017-06-15T06:42:43.585Z,46.80
2017-06-15T06:45:12.620Z,46.40
2017-06-15T06:47:40.891Z,46.40
2017-06-15T06:50:09.179Z,46.40
2017-06-15T06:52:37.450Z,46.30
2017-06-15T06:55:05.734Z,46.10
2017-06-15T06:57:34.002Z,47.20
2017-06-15T07:00:02.288Z,45.90
2017-06-15T07:02:30.563Z,46.20
2017-06-15T07:04:58.852Z,46.30
2017-06-15T07:07:27.119Z,46.10
2017-06-15T07:09:55.412Z,46.10
2017-06-15T07:12:23.689Z,46.00
2017-06-15T07:14:51.983Z,46.20
2017-06-15T07:17:20.257Z,46.40
2017-06-15T07:19:48.536Z,45.40
2017-06-15T07:22:16.831Z,45.60
2017-06-15T07:24:45.869Z,44.80
2017-06-15T07:27:14.155Z,44.80
2017-06-15T07:29:42.431Z,45.00
2017-06-15T07:32:10.724Z,45.10
2017-06-15T07:34:38.996Z,44.90
2017-06-15T07:37:07.285Z,45.40
2017-06-15T07:39:35.554Z,44.90
2017-06-15T07:42:03.892Z,45.20
2017-06-15T07:44:32.172Z,44.80
2017-06-15T07:47:00.460Z,46.10
2017-06-15T07:49:28.736Z,45.40
2017-06-15T07:51:57.014Z,45.40
2017-06-15T07:54:25.295Z,44.90
2017-06-15T07:56:53.564Z,45.50
2017-06-15T07:59:21.852Z,46.10
2017-06-15T08:01:50.129Z,46.20
2017-06-15T08:04:18.416Z,45.50
2017-06-15T08:06:46.683Z,46.10
2017-06-15T08:09:14.972Z,45.50
2017-06-15T08:11:43.248Z,45.70
2017-06-15T08:14:11.539Z,45.90
2017-06-15T08:16:39.824Z,45.80
2017-06-15T08:19:08.133Z,44.90
2017-06-15T08:21:36.407Z,44.80
2017-06-15T08:24:04.679Z,45.50
2017-06-15T08:26:32.971Z,45.70
2017-06-15T08:29:01.249Z,44.90
2017-06-15T08:31:29.548Z,44.20
2017-06-15T08:33:57.818Z,44.70
2017-06-15T08:36:26.104Z,43.60
2017-06-15T08:38:54.375Z,43.00
2017-06-15T08:41:22.662Z,42.70
2017-06-15T08:43:50.931Z,42.90
2017-06-15T08:46:19.233Z,41.90
2017-06-15T08:48:47.501Z,42.30
2017-06-15T08:51:15.790Z,43.00
2017-06-15T08:53:44.075Z,42.60
2017-06-15T08:56:12.383Z,42.60
2017-06-15T08:58:41.427Z,41.70
2017-06-15T09:01:09.691Z,41.60
2017-06-15T09:03:37.975Z,41.20
2017-06-15T09:06:06.240Z,41.50
2017-06-15T09:08:34.527Z,41.50
2017-06-15T09:11:02.792Z,40.00
2017-06-15T09:13:31.070Z,40.80
2017-06-15T09:15:59.331Z,40.80
2017-06-15T09:18:27.611Z,40.50
2017-06-15T09:20:55.882Z,40.80
2017-06-15T09:23:24.203Z,41.30
2017-06-15T09:25:52.475Z,38.30
2017-06-15T09:28:20.754Z,38.30
2017-06-15T09:30:49.027Z,38.10
2017-06-15T09:33:17.316Z,38.90
2017-06-15T09:35:45.575Z,38.50
2017-06-15T09:38:13.885Z,36.80
2017-06-15T09:40:42.156Z,36.10
2017-06-15T09:43:10.437Z,35.80
2017-06-15T09:45:38.728Z,36.20
2017-06-15T09:48:07.768Z,39.30
2017-06-15T09:50:36.053Z,38.80
2017-06-15T09:53:04.323Z,38.80
2017-06-15T09:55:32.602Z,39.10
2017-06-15T09:58:00.966Z,38.80
2017-06-15T10:00:30.015Z,39.20
2017-06-15T10:02:58.278Z,39.10
2017-06-15T10:05:26.564Z,40.40
2017-06-15T10:07:54.843Z,39.90
2017-06-15T10:10:23.160Z,40.00
2017-06-15T10:12:51.437Z,40.10
2017-06-15T10:15:19.715Z,41.30
2017-06-15T10:17:47.994Z,41.40
2017-06-15T10:20:16.263Z,41.80
2017-06-15T10:22:45.316Z,41.90
2017-06-15T10:25:13.595Z,41.80
2017-06-15T10:27:41.883Z,41.10
2017-06-15T10:30:10.167Z,41.40
2017-06-15T10:32:38.479Z,42.10
2017-06-15T10:35:06.771Z,41.80
2017-06-15T10:37:35.056Z,41.30
2017-06-15T10:40:03.327Z,42.40
2017-06-15T10:42:31.611Z,42.40
2017-06-15T10:44:59.884Z,42.70
2017-06-15T10:47:28.190Z,42.60
2017-06-15T10:49:56.459Z,42.80
2017-06-15T10:52:24.742Z,42.40
2017-06-15T10:54:53.095Z,42.60
2017-06-15T10:57:21.375Z,43.30
2017-06-15T10:59:49.788Z,43.20
2017-06-15T11:02:18.059Z,43.30
2017-06-15T11:04:46.347Z,42.60
2017-06-15T11:07:14.622Z,42.90
2017-06-15T11:09:42.911Z,42.40
2017-06-15T11:12:11.242Z,41.90
2017-06-15T11:14:39.531Z,42.60
2017-06-15T11:17:07.836Z,42.30
2017-06-15T11:19:36.900Z,43.20
2017-06-15T11:22:05.347Z,42.70
2017-06-15T11:24:33.620Z,43.30
2017-06-15T11:27:01.924Z,43.10
2017-06-15T11:29:30.201Z,43.20
2017-06-15T11:31:58.500Z,42.90
2017-06-15T11:34:26.812Z,43.40
2017-06-15T11:36:55.115Z,43.10
2017-06-15T11:39:23.387Z,43.70
2017-06-15T11:41:51.685Z,43.00
2017-06-15T11:44:19.980Z,42.30
2017-06-15T11:46:48.272Z,43.00
2017-06-15T11:49:16.545Z,42.10
2017-06-15T11:51:44.914Z,42.10
2017-06-15T11:54:13.180Z,42.50
2017-06-15T11:56:41.447Z,42.20
2017-06-15T11:59:09.739Z,42.30
2017-06-15T12:01:38.012Z,41.20
2017-06-15T12:04:06.307Z,41.60
2017-06-15T12:06:34.607Z,41.50
2017-06-15T12:09:02.901Z,41.40
2017-06-15T12:11:31.183Z,41.70
2017-06-15T12:13:59.483Z,42.00
2017-06-15T12:16:27.772Z,42.20
2017-06-15T12:18:56.068Z,41.80
2017-06-15T12:21:24.348Z,40.80
2017-06-15T12:23:52.644Z,40.60
2017-06-15T12:26:20.941Z,40.30
2017-06-15T12:28:49.242Z,40.20
2017-06-15T12:31:17.520Z,41.10
2017-06-15T12:33:45.789Z,40.30
2017-06-15T12:36:14.165Z,39.80
2017-06-15T12:38:42.444Z,39.10
2017-06-15T12:41:10.728Z,38.90
2017-06-15T12:43:39.008Z,39.30
2017-06-15T12:46:07.296Z,38.20
2017-06-15T12:48:35.572Z,37.50
2017-06-15T12:51:03.868Z,37.30
2017-06-15T12:53:32.139Z,38.10
2017-06-15T12:56:00.441Z,38.30
2017-06-15T12:58:28.726Z,37.90
2017-06-15T13:00:57.793Z,38.10
2017-06-15T13:03:26.064Z,37.50
2017-06-15T13:05:54.348Z,37.70
2017-06-15T13:08:22.630Z,37.30
2017-06-15T13:10:50.924Z,37.70
2017-06-15T13:13:19.200Z,38.40
2017-06-15T13:15:47.495Z,38.10
2017-06-15T13:18:16.538Z,37.00
2017-06-15T13:20:44.820Z,36.60
2017-06-15T13:23:13.115Z,36.20
2017-06-15T13:25:41.396Z,37.60
2017-06-15T13:28:09.685Z,37.90
2017-06-15T13:30:37.956Z,36.60
2017-06-15T13:33:06.266Z,37.00
2017-06-15T13:35:34.541Z,36.90
2017-06-15T13:38:02.847Z,37.50
2017-06-15T13:40:32.046Z,37.30
2017-06-15T13:43:00.328Z,37.30
2017-06-15T13:45:28.629Z,36.80
2017-06-15T13:47:56.936Z,36.50
2017-06-15T13:50:25.468Z,36.00
2017-06-15T13:52:53.735Z,35.70
2017-06-15T13:55:22.030Z,35.70
2017-06-15T13:57:50.307Z,36.10
2017-06-15T14:00:18.602Z,34.40
2017-06-15T14:02:46.879Z,34.80
2017-06-15T14:05:15.171Z,35.80
2017-06-15T14:07:43.441Z,35.80
2017-06-15T14:10:11.735Z,34.90
2017-06-15T14:12:40.007Z,34.80
2017-06-15T14:15:09.064Z,34.20
2017-06-15T14:17:37.357Z,34.20
2017-06-15T14:20:05.646Z,35.30
2017-06-15T14:22:33.920Z,33.90
2017-06-15T14:25:02.212Z,33.90
2017-06-15T14:27:31.259Z,34.00
2017-06-15T14:29:59.536Z,33.60
2017-06-15T14:32:27.846Z,32.80
2017-06-15T14:34:56.104Z,33.70
2017-06-15T14:37:24.440Z,33.00
2017-06-15T14:39:52.720Z,32.20
2017-06-15T14:42:21.023Z,33.30
2017-06-15T14:44:49.306Z,32.30
2017-06-15T14:47:17.591Z,32.20
2017-06-15T14:49:45.859Z,32.10
2017-06-15T14:52:14.156Z,30.70
2017-06-15T14:54:42.444Z,31.70
2017-06-15T14:57:10.760Z,31.40
2017-06-15T14:59:39.032Z,31.40
2017-06-15T15:02:07.308Z,31.30
2017-06-15T15:04:35.599Z,31.40
2017-06-15T15:07:04.262Z,31.40
2017-06-15T15:09:32.779Z,32.50
2017-06-15T15:12:01.105Z,32.40
2017-06-15T15:14:29.479Z,33.30
2017-06-15T15:16:57.765Z,33.30
2017-06-15T15:19:26.827Z,33.00
2017-06-15T15:21:55.297Z,32.60
2017-06-15T15:24:23.668Z,33.20
2017-06-15T15:26:51.940Z,34.10
2017-06-15T15:29:20.273Z,35.50
2017-06-15T15:31:48.549Z,34.00
2017-06-15T15:34:17.019Z,33.80
2017-06-15T15:36:45.312Z,34.10
2017-06-15T15:39:13.587Z,34.60
2017-06-15T15:41:41.878Z,34.00
2017-06-15T15:44:10.919Z,34.40
2017-06-15T15:46:39.219Z,34.80
2017-06-15T15:49:07.592Z,35.40
2017-06-15T15:51:36.055Z,35.70
2017-06-15T15:54:04.517Z,36.30
2017-06-15T15:56:32.831Z,36.70
2017-06-15T15:59:01.096Z,37.70
2017-06-15T16:01:29.429Z,38.00
2017-06-15T16:03:57.688Z,38.20
2017-06-15T16:06:25.984Z,37.80
2017-06-15T16:08:54.261Z,39.00
2017-06-15T16:11:23.376Z,39.80
2017-06-15T16:13:51.656Z,39.70
2017-06-15T16:16:20.110Z,39.50
2017-06-15T16:18:48.411Z,39.70
2017-06-15T16:21:16.930Z,40.30
2017-06-15T16:23:45.276Z,40.20
2017-06-15T16:26:13.567Z,40.80
2017-06-15T16:28:42.667Z,40.90
2017-06-15T16:31:11.737Z,41.30
2017-06-15T16:33:40.020Z,41.30
2017-06-15T16:36:08.287Z,41.80
2017-06-15T16:38:36.578Z,42.00
2017-06-15T16:41:05.196Z,42.00
2017-06-15T16:43:33.489Z,42.20
2017-06-15T16:46:01.756Z,42.10
2017-06-15T16:48:30.051Z,42.10
2017-06-15T16:50:58.327Z,42.00
2017-06-15T16:53:26.615Z,41.90
2017-06-15T16:55:54.903Z,42.40
2017-06-15T16:58:23.178Z,42.50
2017-06-15T17:00:51.468Z,42.40
2017-06-15T17:03:19.736Z,42.40
2017-06-15T17:05:48.028Z,42.70
2017-06-15T17:08:16.304Z,42.90
2017-06-15T17:10:45.551Z,43.30
2017-06-15T17:13:13.824Z,43.30
2017-06-15T17:15:42.230Z,43.80
2017-06-15T17:18:10.529Z,43.90
2017-06-15T17:20:38.826Z,43.90
2017-06-15T17:23:07.095Z,44.00
2017-06-15T17:25:35.388Z,44.30
2017-06-15T17:28:04.437Z,45.40
2017-06-15T17:30:32.737Z,45.30
2017-06-15T17:33:01.008Z,45.60
2017-06-15T17:35:29.364Z,45.80
2017-06-15T17:37:57.648Z,46.00
2017-06-15T17:40:25.921Z,46.10
2017-06-15T17:42:54.227Z,46.30
2017-06-15T17:45:22.507Z,46.60
2017-06-15T17:47:50.801Z,47.00
2017-06-15T17:50:19.843Z,48.20
2017-06-15T17:52:48.135Z,47.50
2017-06-15T17:55:16.420Z,47.60
2017-06-15T17:57:44.708Z,48.00
2017-06-15T18:00:12.972Z,47.80
2017-06-15T18:02:41.264Z,48.00
2017-06-15T18:05:09.555Z,47.90
2017-06-15T18:07:37.825Z,46.90
2017-06-15T18:10:06.127Z,47.00
2017-06-15T18:12:34.467Z,47.10
2017-06-15T18:15:02.761Z,49.00
2017-06-15T18:17:31.060Z,50.40
2017-06-15T18:19:59.351Z,52.00
2017-06-15T18:22:27.640Z,53.10
2017-06-15T18:24:55.939Z,53.60
2017-06-15T18:27:24.209Z,55.30
2017-06-15T18:29:52.504Z,55.70
2017-06-15T18:32:20.771Z,55.20
2017-06-15T18:34:49.063Z,56.50
2017-06-15T18:37:17.352Z,56.20
2017-06-15T18:39:45.629Z,57.10
2017-06-15T18:42:13.913Z,57.30
2017-06-15T18:44:42.192Z,57.20
2017-06-15T18:47:11.256Z,57.70
2017-06-15T18:49:39.531Z,57.70
2017-06-15T18:52:07.824Z,58.70
2017-06-15T18:54:36.108Z,57.00
2017-06-15T18:57:04.411Z,57.80
2017-06-15T18:59:32.696Z,58.60
2017-06-15T19:02:01.000Z,58.60
2017-06-15T19:04:29.279Z,58.60
2017-06-15T19:06:57.596Z,58.90
2017-06-15T19:09:26.672Z,59.50
2017-06-15T19:11:54.951Z,59.90
2017-06-15T19:14:23.243Z,59.60
2017-06-15T19:16:51.520Z,58.50
2017-06-15T19:19:19.819Z,58.90
2017-06-15T19:21:48.880Z,59.00
2017-06-15T19:24:17.172Z,59.00
2017-06-15T19:26:45.459Z,59.90
2017-06-15T19:29:13.753Z,59.30
2017-06-15T19:31:42.027Z,59.70
2017-06-15T19:34:10.327Z,59.90
2017-06-15T19:36:38.607Z,59.90
2017-06-15T19:39:06.907Z,59.70
2017-06-15T19:41:35.212Z,60.00
2017-06-15T19:44:03.533Z,59.50
2017-06-15T19:46:31.812Z,59.90
2017-06-15T19:49:00.087Z,60.40
2017-06-15T19:51:28.460Z,60.50
2017-06-15T19:53:56.723Z,60.90
2017-06-15T19:56:25.783Z,60.50
2017-06-15T19:58:54.072Z,60.30
2017-06-15T20:01:22.394Z,60.60
2017-06-15T20:03:50.672Z,60.30
2017-06-15T20:06:18.964Z,59.70
2017-06-15T20:08:47.248Z,59.50
2017-06-15T20:11:15.563Z,59.40
2017-06-15T20:13:43.841Z,57.90
2017-06-15T20:16:12.154Z,57.10
2017-06-15T20:18:40.435Z,56.60
2017-06-15T20:21:08.753Z,56.40
2017-06-15T20:23:37.024Z,56.10
2017-06-15T20:26:05.308Z,55.80
2017-06-15T20:28:33.604Z,55.40
2017-06-15T20:31:01.877Z,55.60
2017-06-15T20:33:30.187Z,56.20
2017-06-15T20:35:58.453Z,56.20
2017-06-15T20:38:27.509Z,56.00
2017-06-15T20:40:55.777Z,56.00
2017-06-15T20:43:24.067Z,56.40
2017-06-15T20:45:52.343Z,56.10
2017-06-15T20:48:21.448Z,56.20
2017-06-15T20:50:49.723Z,56.10
2017-06-15T20:53:18.015Z,56.40
2017-06-15T20:55:46.292Z,56.20
2017-06-15T20:58:14.576Z,55.90
2017-06-15T21:00:43.618Z,55.90
2017-06-15T21:03:11.911Z,55.90
2017-06-15T21:05:40.183Z,56.30
2017-06-15T21:08:08.463Z,56.50
2017-06-15T21:10:36.749Z,56.50
2017-06-15T21:13:05.021Z,56.40
2017-06-15T21:15:33.316Z,56.30
2017-06-15T21:18:01.601Z,56.20
2017-06-15T21:20:29.889Z,56.10
2017-06-15T21:22:58.924Z,56.20
2017-06-15T21:25:27.216Z,56.20
2017-06-15T21:27:55.491Z,56.20
2017-06-15T21:30:23.779Z,56.10
2017-06-15T21:32:52.056Z,56.00
2017-06-15T21:35:20.340Z,56.20
2017-06-15T21:37:48.604Z,56.10
2017-06-15T21:40:16.895Z,55.90
2017-06-15T21:42:45.165Z,55.90
2017-06-15T21:45:13.431Z,55.90
2017-06-15T21:47:41.716Z,55.90
2017-06-15T21:50:09.987Z,56.00
2017-06-15T21:52:38.271Z,55.50
2017-06-15T21:55:06.544Z,56.00
2017-06-15T21:57:34.868Z,55.90
2017-06-15T22:00:03.904Z,56.20
2017-06-15T22:02:32.188Z,56.20
2017-06-15T22:05:00.463Z,56.10
2017-06-15T22:07:29.570Z,56.60
2017-06-15T22:09:57.839Z,56.40
2017-06-15T22:12:26.128Z,56.80
2017-06-15T22:14:54.396Z,57.20
2017-06-15T22:17:22.673Z,57.10
2017-06-15T22:19:51.084Z,57.20
2017-06-15T22:22:19.365Z,57.40
2017-06-15T22:24:47.649Z,57.60
2017-06-15T22:27:15.922Z,57.50
2017-06-15T22:29:44.208Z,57.50
2017-06-15T22:32:13.243Z,57.90
2017-06-15T22:34:41.531Z,57.70
2017-06-15T22:37:09.804Z,57.70
2017-06-15T22:39:38.106Z,57.90
2017-06-15T22:42:06.371Z,57.90
2017-06-15T22:44:34.671Z,58.00
2017-06-15T22:47:02.945Z,58.10
2017-06-15T22:49:31.221Z,58.30
2017-06-15T22:51:59.504Z,58.40
2017-06-15T22:54:27.772Z,58.50
2017-06-15T22:56:56.069Z,58.60
2017-06-15T22:59:24.340Z,58.60
2017-06-15T23:01:52.627Z,58.60
2017-06-15T23:04:21.665Z,59.10
2017-06-15T23:06:49.967Z,59.10
2017-06-15T23:09:19.216Z,59.00
2017-06-15T23:11:47.503Z,59.10
2017-06-15T23:14:15.796Z,59.20
2017-06-15T23:16:44.084Z,59.00
2017-06-15T23:19:12.353Z,59.30
2017-06-15T23:21:40.640Z,59.70
2017-06-15T23:24:08.908Z,59.80
2017-06-15T23:26:37.225Z,60.00
2017-06-15T23:29:05.508Z,60.40
2017-06-15T23:31:33.815Z,60.20
2017-06-15T23:34:02.082Z,60.50
2017-06-15T23:36:31.115Z,60.70
2017-06-15T23:38:59.403Z,60.60
2017-06-15T23:41:27.679Z,61.00
2017-06-15T23:43:55.987Z,60.90
2017-06-15T23:46:24.275Z,61.00
2017-06-15T23:48:52.568Z,62.10
2017-06-15T23:51:20.843Z,61.90
2017-06-15T23:53:49.900Z,62.10
2017-06-15T23:56:18.165Z,62.00
2017-06-15T23:58:46.463Z,62.30
